Time;durP1;ratioP1;P1;durP2;ratioP2;P2;SDS_P1;SDS_P2;PMS_P1;PMS_P2;Temp;Humidity;BMP_temperature;BMP_pressure;BME280_temperature;BME280_humidity;BME280_pressure;Samples;Min_cycle;Max_cycle;Signal;HPM_P1;HPM_P2
2022/04/28 00:02:11;;;;;;;11.65;4.90;;;6.50;99.90;;;;;;5083913;28;20048;-64
2022/04/28 00:04:37;;;;;;;12.85;4.75;;;6.50;99.90;;;;;;5083411;28;20036;-64
2022/04/28 00:07:03;;;;;;;10.70;5.10;;;6.50;99.90;;;;;;5082123;28;20440;-64
2022/04/28 00:09:28;;;;;;;12.57;5.25;;;6.50;99.90;;;;;;5087225;28;20055;-64
2022/04/28 00:11:54;;;;;;;10.77;4.85;;;6.40;99.90;;;;;;5085053;28;20249;-63
2022/04/28 00:14:20;;;;;;;11.05;5.07;;;6.40;99.90;;;;;;5083242;28;20128;-64
2022/04/28 00:16:46;;;;;;;11.63;5.47;;;6.40;99.90;;;;;;5087468;28;20040;-64
2022/04/28 00:19:12;;;;;;;11.18;5.22;;;6.30;99.90;;;;;;5086048;28;20055;-64
2022/04/28 00:21:38;;;;;;;14.98;5.80;;;6.30;99.90;;;;;;5082544;28;20048;-65
2022/04/28 00:24:03;;;;;;;8.75;4.95;;;6.30;99.90;;;;;;5086343;28;20075;-64
2022/04/28 00:26:29;;;;;;;12.02;5.50;;;6.30;99.90;;;;;;5086509;28;20032;-65
2022/04/28 00:28:54;;;;;;;11.43;5.57;;;6.20;99.90;;;;;;5084512;28;21898;-64
2022/04/28 00:31:20;;;;;;;12.95;5.70;;;6.20;99.90;;;;;;5084038;28;20572;-64
2022/04/28 00:33:48;;;;;;;14.00;6.13;;;6.20;99.90;;;;;;5085729;28;20552;-66
2022/04/28 00:36:14;;;;;;;13.68;6.13;;;6.10;99.90;;;;;;5080086;28;20428;-66
2022/04/28 00:38:40;;;;;;;13.75;6.63;;;6.10;99.90;;;;;;5084338;28;20044;-65
2022/04/28 00:41:06;;;;;;;14.63;5.72;;;6.00;99.90;;;;;;5082136;28;20047;-64
2022/04/28 00:43:32;;;;;;;10.63;6.10;;;6.00;99.90;;;;;;5084801;28;20479;-64
2022/04/28 00:45:59;;;;;;;12.40;7.03;;;6.00;99.90;;;;;;5067667;28;20314;-65
2022/04/28 00:51:11;;;;;;;10.68;6.47;;;5.90;99.90;;;;;;5076490;28;20467;-65
2022/04/28 00:53:48;;;;;;;10.38;6.53;;;5.90;99.90;;;;;;5088863;28;20048;-64
2022/04/28 00:56:15;;;;;;;14.02;7.03;;;5.80;99.90;;;;;;5085222;28;20054;-65
2022/04/28 00:58:41;;;;;;;12.48;6.97;;;5.80;99.90;;;;;;5084709;28;20458;-64
2022/04/28 01:01:07;;;;;;;13.35;6.68;;;5.80;99.90;;;;;;5083592;28;20082;-65
2022/04/28 01:03:33;;;;;;;10.82;7.32;;;5.80;99.90;;;;;;5086191;28;20051;-64
2022/04/28 01:05:59;;;;;;;10.88;6.63;;;5.70;99.90;;;;;;5088075;28;20028;-64
2022/04/28 01:08:25;;;;;;;10.82;7.00;;;5.70;99.90;;;;;;5091907;28;20118;-64
2022/04/28 01:10:54;;;;;;;12.73;7.05;;;5.70;99.90;;;;;;5092219;28;20420;-64
2022/04/28 01:13:19;;;;;;;10.55;6.45;;;5.70;99.90;;;;;;5092850;28;20058;-64
2022/04/28 01:15:46;;;;;;;12.38;6.72;;;5.60;99.90;;;;;;5089808;28;20044;-64
2022/04/28 01:18:12;;;;;;;10.35;6.60;;;5.70;99.90;;;;;;5094232;28;20059;-64
2022/04/28 01:20:38;;;;;;;12.77;7.50;;;5.60;99.90;;;;;;5090882;28;20134;-64
2022/04/28 01:23:05;;;;;;;15.82;7.30;;;5.60;99.90;;;;;;5092401;28;20454;-64
2022/04/28 01:25:30;;;;;;;15.18;7.22;;;5.60;99.90;;;;;;5093063;28;20035;-64
2022/04/28 01:27:57;;;;;;;12.93;7.18;;;5.60;99.90;;;;;;5094447;28;20374;-65
2022/04/28 01:30:23;;;;;;;12.32;7.40;;;5.60;99.90;;;;;;5090279;28;20044;-64
2022/04/28 01:32:50;;;;;;;16.35;7.47;;;5.50;99.90;;;;;;5086247;28;20133;-64
2022/04/28 01:35:15;;;;;;;11.00;7.05;;;5.50;99.90;;;;;;5088773;28;20159;-64
2022/04/28 01:37:41;;;;;;;14.93;7.38;;;5.40;99.90;;;;;;5086527;28;20166;-63
2022/04/28 01:40:13;;;;;;;16.35;7.50;;;5.40;99.90;;;;;;5090467;28;20047;-63
2022/04/28 01:42:40;;;;;;;11.52;6.80;;;5.40;99.90;;;;;;5088784;28;20044;-64
2022/04/28 01:45:10;;;;;;;12.15;7.03;;;5.40;99.90;;;;;;5088928;28;20678;-63
2022/04/28 01:47:36;;;;;;;12.45;7.10;;;5.40;99.90;;;;;;5091880;28;20071;-64
2022/04/28 01:50:03;;;;;;;13.38;7.50;;;5.30;99.90;;;;;;5087967;28;20055;-64
2022/04/28 01:55:14;;;;;;;14.30;7.25;;;5.30;99.90;;;;;;5091589;28;20168;-63
2022/04/28 01:57:39;;;;;;;13.68;6.70;;;5.30;99.90;;;;;;5090673;28;20059;-64
2022/04/28 02:00:07;;;;;;;10.30;7.00;;;5.20;99.90;;;;;;5091865;28;20036;-64
2022/04/28 02:02:34;;;;;;;10.35;6.57;;;5.30;99.90;;;;;;5089778;28;20084;-64
2022/04/28 02:05:01;;;;;;;13.77;7.32;;;5.20;99.90;;;;;;5084980;28;20051;-63
2022/04/28 02:07:29;;;;;;;13.82;7.45;;;5.20;99.90;;;;;;5091574;28;20047;-63
2022/04/28 02:09:55;;;;;;;12.18;7.40;;;5.20;99.90;;;;;;5089506;28;20115;-64
2022/04/28 02:12:21;;;;;;;11.30;6.72;;;5.20;99.90;;;;;;5083574;28;20071;-63
2022/04/28 02:14:47;;;;;;;11.85;7.18;;;5.20;99.90;;;;;;5093885;28;20040;-66
2022/04/28 02:17:23;;;;;;;14.45;6.70;;;5.20;99.90;;;;;;5088579;28;20052;-64
2022/04/28 02:19:50;;;;;;;12.43;7.43;;;5.20;99.90;;;;;;5087663;28;20492;-65
2022/04/28 02:22:15;;;;;;;12.88;7.00;;;5.20;99.90;;;;;;5085859;28;20480;-64
2022/04/28 02:24:41;;;;;;;10.10;6.57;;;5.10;99.90;;;;;;5088439;28;20090;-64
2022/04/28 02:27:07;;;;;;;11.27;6.90;;;5.10;99.90;;;;;;5088507;28;20040;-64
2022/04/28 02:29:33;;;;;;;12.73;7.45;;;5.20;99.90;;;;;;5087812;28;20081;-64
2022/04/28 02:31:59;;;;;;;15.10;8.00;;;5.20;99.90;;;;;;5086801;28;20058;-64
2022/04/28 02:34:24;;;;;;;14.82;7.63;;;5.20;99.90;;;;;;5085530;28;20490;-65
2022/04/28 02:36:50;;;;;;;12.88;6.82;;;5.20;99.90;;;;;;5087762;28;20043;-63
2022/04/28 02:39:17;;;;;;;13.00;7.05;;;5.20;99.90;;;;;;5083963;28;20063;-63
2022/04/28 02:41:44;;;;;;;14.32;6.90;;;5.30;99.90;;;;;;5089471;28;20244;-64
2022/04/28 02:44:12;;;;;;;12.38;7.43;;;5.30;99.90;;;;;;5087083;28;20719;-64
2022/04/28 02:46:42;;;;;;;11.23;6.28;;;5.20;99.90;;;;;;5088263;28;20478;-64
2022/04/28 02:49:09;;;;;;;10.07;6.60;;;5.30;99.90;;;;;;5086719;28;20918;-64
2022/04/28 02:51:34;;;;;;;10.50;6.20;;;5.30;99.90;;;;;;5087801;28;20051;-63
2022/04/28 02:54:00;;;;;;;12.43;6.55;;;5.40;99.90;;;;;;5088184;28;20647;-64
2022/04/28 02:56:26;;;;;;;11.63;6.95;;;5.40;99.90;;;;;;5085377;28;20048;-64
2022/04/28 02:58:53;;;;;;;12.93;6.93;;;5.40;99.90;;;;;;5087777;28;20546;-64
2022/04/28 03:01:19;;;;;;;10.50;6.10;;;5.40;99.90;;;;;;5083716;28;20182;-64
2022/04/28 03:03:45;;;;;;;12.30;6.80;;;5.50;99.90;;;;;;5087501;28;20127;-63
2022/04/28 03:11:41;;;;;;;12.88;7.03;;;5.50;99.90;;;;;;5085336;28;20113;-64
2022/04/28 03:14:08;;;;;;;12.85;7.45;;;5.60;99.90;;;;;;5088541;28;20060;-63
2022/04/28 03:16:35;;;;;;;14.05;7.20;;;5.60;99.90;;;;;;5087507;28;20044;-64
2022/04/28 03:19:01;;;;;;;15.05;8.63;;;5.70;99.90;;;;;;5088122;28;20166;-63
2022/04/28 03:21:26;;;;;;;12.93;7.88;;;5.70;99.90;;;;;;5086434;28;20510;-64
2022/04/28 03:23:52;;;;;;;15.18;7.70;;;5.70;99.90;;;;;;5088992;28;20032;-64
2022/04/28 03:26:17;;;;;;;16.05;8.85;;;5.70;99.90;;;;;;5086118;28;20040;-64
2022/04/28 03:28:43;;;;;;;12.98;7.93;;;5.70;99.90;;;;;;5087535;28;20079;-63
2022/04/28 03:31:08;;;;;;;13.70;8.50;;;5.80;99.90;;;;;;5086721;28;20071;-64
2022/04/28 03:33:34;;;;;;;13.23;7.85;;;5.80;99.90;;;;;;5086252;28;20048;-64
2022/04/28 03:36:00;;;;;;;15.63;8.23;;;5.90;99.90;;;;;;5082347;28;20067;-64
2022/04/28 03:38:26;;;;;;;13.98;8.07;;;5.90;99.90;;;;;;5086700;28;20043;-64
2022/04/28 03:40:52;;;;;;;13.00;7.82;;;6.00;99.90;;;;;;5085997;28;20336;-63
2022/04/28 03:43:18;;;;;;;13.48;7.85;;;5.90;99.90;;;;;;5087693;28;20044;-63
2022/04/28 03:45:44;;;;;;;13.13;7.93;;;6.00;99.90;;;;;;5085043;28;20036;-64
2022/04/28 03:48:10;;;;;;;16.90;8.27;;;6.00;99.90;;;;;;5087125;28;20083;-63
2022/04/28 03:50:37;;;;;;;16.52;8.15;;;6.10;99.90;;;;;;5080900;28;20440;-63
2022/04/28 03:53:04;;;;;;;11.20;7.15;;;6.00;99.90;;;;;;5083540;28;20131;-65
2022/04/28 03:55:29;;;;;;;14.27;7.30;;;6.10;99.90;;;;;;5086445;28;20060;-63
2022/04/28 03:57:55;;;;;;;13.18;7.72;;;6.10;99.90;;;;;;5076463;28;20052;-64
2022/04/28 04:00:21;;;;;;;14.90;8.48;;;6.10;99.90;;;;;;5085262;28;20119;-63
2022/04/28 04:02:48;;;;;;;17.73;7.20;;;6.10;99.90;;;;;;5087815;28;20115;-64
2022/04/28 04:05:14;;;;;;;10.50;6.28;;;6.00;99.90;;;;;;5084766;28;20101;-63
2022/04/28 04:07:42;;;;;;;14.35;6.55;;;6.10;99.90;;;;;;5084270;28;20423;-64
2022/04/28 04:10:09;;;;;;;14.25;6.88;;;6.10;99.90;;;;;;5084667;28;20094;-66
2022/04/28 04:12:35;;;;;;;13.38;6.78;;;6.10;99.90;;;;;;5085759;28;20514;-64
2022/04/28 04:15:02;;;;;;;13.15;6.93;;;6.20;99.90;;;;;;5086352;28;20042;-63
2022/04/28 04:17:28;;;;;;;14.55;7.22;;;6.20;99.90;;;;;;5089187;28;20465;-64
2022/04/28 04:19:53;;;;;;;12.60;7.28;;;6.20;99.90;;;;;;5086224;28;20163;-63
2022/04/28 04:22:19;;;;;;;13.63;6.90;;;6.20;99.90;;;;;;5087393;28;20060;-64
2022/04/28 04:24:44;;;;;;;11.95;6.70;;;6.30;99.90;;;;;;5087110;28;20365;-63
2022/04/28 04:27:10;;;;;;;13.50;7.22;;;6.20;99.90;;;;;;5086217;28;20568;-63
2022/04/28 04:29:36;;;;;;;12.85;7.57;;;6.30;99.90;;;;;;5087041;28;20426;-64
2022/04/28 04:32:18;;;;;;;14.95;7.43;;;6.30;99.90;;;;;;5083708;28;20055;-64
2022/04/28 04:34:45;;;;;;;12.70;7.00;;;6.30;99.90;;;;;;5086149;28;20048;-63
2022/04/28 04:37:11;;;;;;;11.57;6.43;;;6.40;99.90;;;;;;5083809;28;20136;-64
2022/04/28 04:39:37;;;;;;;13.40;7.35;;;6.40;99.90;;;;;;5079277;28;20140;-64
2022/04/28 04:42:04;;;;;;;13.23;7.55;;;6.40;99.90;;;;;;5082744;28;20101;-64
2022/04/28 04:44:29;;;;;;;12.88;7.00;;;6.50;99.90;;;;;;5080030;28;20125;-63
2022/04/28 04:46:55;;;;;;;13.18;7.28;;;6.50;99.90;;;;;;5080793;28;20162;-64
2022/04/28 04:49:20;;;;;;;13.05;7.60;;;6.50;99.90;;;;;;5075477;28;20040;-63
2022/04/28 04:51:46;;;;;;;13.23;7.35;;;6.60;99.90;;;;;;5080893;28;20040;-63
2022/04/28 04:54:11;;;;;;;16.05;7.55;;;6.60;99.90;;;;;;5079728;28;20036;-63
2022/04/28 04:56:38;;;;;;;13.35;7.57;;;6.70;99.90;;;;;;5083592;28;20064;-64
2022/04/28 04:59:03;;;;;;;12.32;7.72;;;6.70;99.90;;;;;;5080345;28;20070;-64
2022/04/28 05:01:29;;;;;;;12.10;7.85;;;6.70;99.90;;;;;;5077733;28;21228;-64
2022/04/28 05:03:55;;;;;;;14.57;7.60;;;6.80;99.90;;;;;;5079724;28;20036;-64
2022/04/28 05:06:20;;;;;;;12.50;7.38;;;6.80;99.90;;;;;;5083350;28;20044;-65
2022/04/28 05:08:46;;;;;;;11.25;7.07;;;6.90;99.90;;;;;;5085734;28;20044;-64
2022/04/28 05:11:12;;;;;;;11.80;7.38;;;6.90;99.90;;;;;;5085724;28;20049;-64
2022/04/28 05:13:37;;;;;;;12.18;7.18;;;7.00;99.90;;;;;;5084791;28;20062;-63
2022/04/28 05:16:03;;;;;;;16.20;7.43;;;7.10;99.90;;;;;;5081707;28;20048;-66
2022/04/28 05:18:29;;;;;;;11.80;7.55;;;7.10;99.90;;;;;;5077385;28;20041;-63
2022/04/28 05:20:54;;;;;;;12.10;7.70;;;7.20;99.90;;;;;;5080198;28;20040;-64
2022/04/28 05:23:23;;;;;;;11.75;7.03;;;7.20;99.90;;;;;;5085821;28;20548;-63
2022/04/28 05:25:49;;;;;;;15.88;8.20;;;7.30;99.90;;;;;;5085387;28;20097;-63
2022/04/28 05:28:14;;;;;;;13.35;7.75;;;7.40;99.90;;;;;;5085071;28;20040;-65
2022/04/28 05:30:40;;;;;;;13.35;7.30;;;7.40;99.90;;;;;;5082086;28;20048;-63
2022/04/28 05:33:05;;;;;;;15.18;6.85;;;7.50;99.90;;;;;;5086201;28;20032;-64
2022/04/28 05:35:34;;;;;;;10.68;6.10;;;7.50;99.90;;;;;;5084586;28;20742;-64
2022/04/28 05:38:00;;;;;;;12.38;6.57;;;7.60;99.90;;;;;;5086480;28;20148;-65
2022/04/28 05:40:26;;;;;;;12.45;6.65;;;7.70;99.90;;;;;;5079419;28;20130;-63
2022/04/28 05:45:42;;;;;;;12.30;6.15;;;7.80;99.90;;;;;;5081646;28;20434;-64
2022/04/28 05:48:09;;;;;;;13.38;6.18;;;7.90;99.90;;;;;;5077366;28;20044;-64
2022/04/28 05:50:35;;;;;;;11.48;6.00;;;7.90;99.90;;;;;;5083217;28;20127;-63
2022/04/28 05:53:01;;;;;;;10.77;5.85;;;7.90;99.90;;;;;;5086272;28;20384;-65
2022/04/28 05:55:27;;;;;;;10.48;6.07;;;8.00;99.90;;;;;;5080088;28;20040;-64
2022/04/28 05:57:53;;;;;;;11.85;6.47;;;8.10;99.90;;;;;;5092240;28;20044;-64
2022/04/28 06:00:19;;;;;;;11.35;6.53;;;8.10;99.90;;;;;;5090033;28;20047;-65
2022/04/28 06:02:44;;;;;;;13.00;6.47;;;8.20;99.90;;;;;;5086897;28;20080;-64
2022/04/28 06:05:10;;;;;;;10.80;6.32;;;8.20;99.90;;;;;;5089010;28;20131;-64
2022/04/28 06:07:35;;;;;;;14.48;6.07;;;8.30;99.90;;;;;;5090516;28;20047;-64
2022/04/28 06:10:02;;;;;;;11.88;6.30;;;8.40;99.90;;;;;;5086352;28;20059;-64
2022/04/28 06:12:28;;;;;;;9.75;6.07;;;8.50;99.90;;;;;;5089703;28;20489;-63
2022/04/28 06:14:54;;;;;;;12.27;6.03;;;8.70;99.90;;;;;;5086096;28;20510;-65
2022/04/28 06:17:20;;;;;;;11.55;5.72;;;8.80;99.90;;;;;;5084219;28;20047;-64
2022/04/28 06:19:46;;;;;;;12.02;6.70;;;8.90;99.90;;;;;;5076552;28;20053;-64
2022/04/28 06:22:12;;;;;;;12.52;6.88;;;8.90;99.90;;;;;;5080746;28;20055;-64
2022/04/28 06:24:37;;;;;;;12.25;6.78;;;9.00;99.90;;;;;;5084341;28;20471;-64
2022/04/28 06:27:04;;;;;;;15.80;6.57;;;9.10;99.90;;;;;;5082978;28;20120;-62
2022/04/28 06:29:29;;;;;;;11.65;6.75;;;9.10;99.90;;;;;;5089124;28;20426;-65
2022/04/28 06:31:55;;;;;;;12.90;6.20;;;9.20;99.90;;;;;;5088227;28;20040;-64
2022/04/28 06:34:21;;;;;;;12.63;5.97;;;9.20;99.90;;;;;;5083457;28;20453;-66
2022/04/28 06:36:46;;;;;;;11.20;5.35;;;9.30;99.90;;;;;;5083631;28;20552;-65
2022/04/28 06:39:13;;;;;;;12.88;5.55;;;9.30;99.90;;;;;;5077924;28;20054;-66
2022/04/28 06:41:39;;;;;;;11.13;4.95;;;9.50;99.90;;;;;;5081314;28;20064;-65
2022/04/28 06:44:04;;;;;;;9.65;4.88;;;9.50;99.90;;;;;;5087931;28;20097;-65
2022/04/28 06:46:30;;;;;;;7.45;4.18;;;9.50;99.90;;;;;;5083098;28;20036;-64
2022/04/28 06:48:55;;;;;;;9.38;4.00;;;9.60;99.90;;;;;;5082935;28;20528;-67
2022/04/28 06:51:21;;;;;;;9.18;4.00;;;9.70;99.90;;;;;;5081325;28;20044;-65
2022/04/28 06:53:47;;;;;;;8.65;4.15;;;9.70;99.90;;;;;;5080243;28;20048;-65
2022/04/28 06:56:13;;;;;;;9.60;4.55;;;9.80;99.90;;;;;;5083695;28;20056;-66
2022/04/28 06:58:38;;;;;;;10.50;4.43;;;9.80;99.90;;;;;;5083963;28;20043;-66
2022/04/28 07:01:05;;;;;;;7.93;4.30;;;9.90;99.90;;;;;;5084431;28;20364;-65
2022/04/28 07:03:31;;;;;;;12.45;4.43;;;10.00;99.90;;;;;;5085144;28;20112;-64
2022/04/28 07:05:56;;;;;;;8.30;3.85;;;10.10;99.90;;;;;;5079935;28;20589;-64
2022/04/28 07:08:22;;;;;;;9.65;4.18;;;10.20;99.90;;;;;;5080293;28;20046;-65
2022/04/28 07:10:48;;;;;;;10.32;3.97;;;10.20;99.90;;;;;;5083623;28;20044;-65
2022/04/28 07:13:14;;;;;;;12.73;4.35;;;10.20;99.90;;;;;;5087163;28;20033;-64
2022/04/28 07:15:40;;;;;;;9.15;4.20;;;10.20;99.90;;;;;;5080853;28;20480;-66
2022/04/28 07:18:06;;;;;;;7.13;3.60;;;10.20;99.90;;;;;;5081551;28;20047;-66
2022/04/28 07:20:35;;;;;;;8.38;3.65;;;10.20;99.90;;;;;;5084357;28;20142;-66
2022/04/28 07:23:01;;;;;;;9.23;3.30;;;10.20;99.90;;;;;;5087880;28;20078;-64
2022/04/28 07:25:29;;;;;;;9.88;3.45;;;10.20;99.90;;;;;;5085636;28;21686;-67
2022/04/28 07:27:55;;;;;;;9.75;3.70;;;10.30;99.90;;;;;;5078248;28;20052;-65
2022/04/28 07:30:22;;;;;;;7.60;3.80;;;10.30;99.90;;;;;;5084115;28;20543;-64
2022/04/28 07:32:48;;;;;;;12.27;3.80;;;10.30;99.90;;;;;;5082840;28;20055;-65
2022/04/28 07:35:14;;;;;;;10.82;3.33;;;10.40;99.90;;;;;;5085345;28;20051;-65
2022/04/28 07:37:40;;;;;;;10.43;3.95;;;10.40;99.90;;;;;;5085100;28;20098;-65
2022/04/28 07:40:06;;;;;;;11.27;4.10;;;10.40;99.90;;;;;;5082381;28;20513;-65
2022/04/28 07:42:33;;;;;;;13.05;4.20;;;10.40;99.90;;;;;;5083786;28;20040;-64
2022/04/28 07:44:59;;;;;;;11.82;4.70;;;10.40;99.90;;;;;;5082967;28;20048;-66
2022/04/28 07:47:26;;;;;;;10.40;4.50;;;10.30;99.90;;;;;;5087132;28;20035;-64
2022/04/28 07:49:53;;;;;;;10.32;4.35;;;10.30;99.90;;;;;;5082312;28;20139;-65
2022/04/28 07:52:19;;;;;;;10.43;4.43;;;10.30;99.90;;;;;;5081604;28;20459;-65
2022/04/28 07:54:45;;;;;;;13.23;4.20;;;10.40;99.90;;;;;;5081047;28;20479;-65
2022/04/28 07:57:10;;;;;;;9.55;4.13;;;10.40;99.90;;;;;;5078524;28;20083;-67
2022/04/28 07:59:37;;;;;;;9.38;3.72;;;10.50;99.90;;;;;;5080829;28;20075;-64
2022/04/28 08:02:03;;;;;;;17.58;4.60;;;10.60;99.90;;;;;;5080909;28;20062;-65
2022/04/28 08:04:29;;;;;;;9.60;4.07;;;10.70;99.90;;;;;;5080862;28;20048;-64
2022/04/28 08:06:55;;;;;;;8.95;3.75;;;10.90;99.90;;;;;;5082514;28;20171;-66
2022/04/28 08:09:21;;;;;;;12.85;4.03;;;11.00;99.90;;;;;;5081595;28;20040;-64
2022/04/28 08:11:47;;;;;;;9.13;4.07;;;11.10;99.90;;;;;;5079900;28;20063;-65
2022/04/28 08:14:12;;;;;;;12.18;3.90;;;11.30;99.90;;;;;;5087285;28;20109;-64
2022/04/28 08:16:38;;;;;;;9.15;3.60;;;11.40;99.90;;;;;;5083471;28;20581;-65
2022/04/28 08:19:04;;;;;;;15.68;4.43;;;11.50;99.90;;;;;;5085874;28;20044;-64
2022/04/28 08:21:30;;;;;;;12.57;4.55;;;11.70;99.90;;;;;;5086767;28;20043;-63
2022/04/28 08:23:56;;;;;;;8.38;3.70;;;11.80;99.90;;;;;;5085900;28;20035;-64
2022/04/28 08:26:21;;;;;;;12.50;3.88;;;11.90;99.90;;;;;;5085131;28;20174;-65
2022/04/28 08:28:47;;;;;;;11.63;4.40;;;11.90;99.90;;;;;;5088403;28;20040;-65
2022/04/28 08:31:12;;;;;;;10.02;4.13;;;12.00;99.90;;;;;;5089567;28;20044;-64
2022/04/28 08:33:38;;;;;;;9.80;3.78;;;12.00;99.90;;;;;;5089449;28;20040;-63
2022/04/28 08:36:04;;;;;;;11.73;4.50;;;11.80;99.90;;;;;;5085575;28;20051;-66
2022/04/28 08:38:31;;;;;;;7.95;3.85;;;11.80;99.90;;;;;;5085037;28;20036;-66
2022/04/28 08:41:01;;;;;;;9.30;3.78;;;11.80;99.90;;;;;;5086079;28;20518;-64
2022/04/28 08:43:30;;;;;;;12.40;4.10;;;11.80;99.90;;;;;;5087585;28;20394;-64
2022/04/28 08:48:51;;;;;;;8.73;3.75;;;11.70;99.90;;;;;;5084171;28;20055;-65
2022/04/28 08:51:18;;;;;;;10.88;3.63;;;11.80;99.90;;;;;;5085358;28;20437;-64
2022/04/28 08:53:47;;;;;;;10.68;4.38;;;11.60;99.90;;;;;;5084943;28;20495;-64
2022/04/28 08:56:14;;;;;;;11.48;4.30;;;11.80;99.90;;;;;;5085997;28;20054;-64
2022/04/28 08:58:39;;;;;;;10.07;4.22;;;11.80;99.90;;;;;;5086433;28;20040;-64
2022/04/28 09:01:05;;;;;;;10.18;3.95;;;11.80;99.90;;;;;;5084376;28;20048;-64
2022/04/28 09:03:31;;;;;;;8.98;3.85;;;11.80;99.90;;;;;;5088747;28;20040;-63
2022/04/28 09:05:57;;;;;;;10.60;3.53;;;11.90;99.90;;;;;;5086090;28;20046;-64
2022/04/28 09:08:22;;;;;;;8.65;3.80;;;11.90;99.90;;;;;;5083745;28;20052;-65
2022/04/28 09:10:48;;;;;;;9.02;3.80;;;11.90;99.90;;;;;;5079075;28;20548;-64
2022/04/28 09:15:59;;;;;;;10.75;3.17;;;11.90;99.90;;;;;;5085205;28;20055;-66
2022/04/28 09:18:25;;;;;;;9.05;3.45;;;11.90;99.90;;;;;;5084842;28;20606;-63
2022/04/28 09:20:51;;;;;;;6.18;2.80;;;11.90;99.90;;;;;;5082990;28;20337;-64
2022/04/28 09:23:18;;;;;;;7.50;2.67;;;12.00;99.90;;;;;;5085977;28;20036;-64
2022/04/28 09:25:44;;;;;;;6.93;2.85;;;12.20;99.90;;;;;;5086936;28;20044;-64
2022/04/28 09:28:10;;;;;;;9.25;3.20;;;12.30;99.90;;;;;;5090512;28;20040;-63
2022/04/28 09:30:43;;;;;;;7.55;3.42;;;12.30;99.30;;;;;;5090701;28;20056;-64
2022/04/28 09:33:12;;;;;;;8.65;3.50;;;12.60;99.30;;;;;;5077379;28;20051;-65
2022/04/28 09:36:04;;;;;;;9.13;2.70;;;12.80;98.40;;;;;;5087988;28;20119;-64
2022/04/28 09:38:30;;;;;;;6.72;2.67;;;12.90;97.10;;;;;;5086223;28;20060;-65
2022/04/28 09:43:40;;;;;;;7.93;2.80;;;13.00;96.80;;;;;;5091298;28;20060;-63
2022/04/28 09:46:07;;;;;;;9.30;2.80;;;13.00;96.30;;;;;;5090147;28;20321;-63
2022/04/28 09:48:33;;;;;;;7.97;2.63;;;13.20;96.80;;;;;;5091820;28;20044;-62
2022/04/28 09:51:04;;;;;;;7.97;2.67;;;13.50;95.90;;;;;;5087187;28;20792;-63
2022/04/28 09:53:35;;;;;;;7.15;2.60;;;13.80;95.40;;;;;;5090709;28;20048;-62
2022/04/28 09:56:03;;;;;;;7.10;2.92;;;13.80;93.60;;;;;;5088606;28;20056;-62
2022/04/28 09:58:29;;;;;;;6.30;2.92;;;14.00;94.60;;;;;;5090556;28;20044;-61
2022/04/28 10:01:00;;;;;;;6.85;2.78;;;14.00;93.60;;;;;;5074405;28;20424;-61
2022/04/28 10:03:29;;;;;;;7.07;3.10;;;14.00;93.20;;;;;;5089861;28;20085;-61
2022/04/28 10:05:57;;;;;;;6.07;2.58;;;14.10;94.00;;;;;;5088722;28;20040;-61
2022/04/28 10:08:24;;;;;;;5.68;2.10;;;14.20;93.00;;;;;;5088800;28;20051;-61
2022/04/28 10:10:55;;;;;;;6.55;2.80;;;14.20;92.50;;;;;;5088126;28;20903;-62
2022/04/28 10:13:22;;;;;;;7.20;2.97;;;14.20;92.30;;;;;;5088921;28;20488;-62
2022/04/28 10:15:53;;;;;;;5.97;2.50;;;14.30;92.20;;;;;;5089215;28;20464;-62
2022/04/28 10:18:23;;;;;;;7.80;2.97;;;14.20;90.70;;;;;;5090137;28;20111;-61
2022/04/28 10:20:55;;;;;;;7.25;2.58;;;14.10;90.80;;;;;;5083143;28;20460;-62
2022/04/28 10:32:22;;;;;;;7.28;2.70;;;14.10;91.50;;;;;;5088868;28;20032;-62
2022/04/28 10:34:32;;;;;;;5.45;2.70;;;14.40;91.40;;;;;;5083897;28;20050;-62
2022/04/28 10:36:59;;;;;;;6.45;2.38;;;14.60;91.40;;;;;;5084231;28;20040;-62
2022/04/28 10:39:43;;;;;;;7.93;2.63;;;14.60;90.80;;;;;;5082556;28;20040;-62
2022/04/28 10:42:15;;;;;;;7.38;2.20;;;14.90;87.80;;;;;;5080636;28;20052;-61
2022/04/28 10:45:22;;;;;;;6.50;2.67;;;15.00;91.00;;;;;;5089904;28;20055;-61
2022/04/28 10:47:48;;;;;;;7.18;2.78;;;15.00;85.90;;;;;;5081087;28;20387;-62
2022/04/28 10:50:23;;;;;;;7.93;2.38;;;14.90;87.50;;;;;;5086619;28;20082;-61
2022/04/28 10:52:59;;;;;;;6.90;2.60;;;15.10;88.30;;;;;;5085311;28;20059;-61
2022/04/28 10:55:33;;;;;;;6.63;2.70;;;15.20;86.40;;;;;;5085110;28;20142;-61
2022/04/28 10:58:20;;;;;;;8.45;2.47;;;15.40;85.00;;;;;;5086543;28;20080;-61
2022/04/28 11:00:55;;;;;;;7.95;2.60;;;15.60;78.10;;;;;;5088463;28;20056;-61
2022/04/28 11:03:47;;;;;;;5.97;2.75;;;15.80;83.10;;;;;;5090149;28;20052;-61
2022/04/28 11:06:16;;;;;;;7.53;2.85;;;15.80;78.40;;;;;;5083427;28;20047;-61
2022/04/28 11:08:50;;;;;;;8.20;2.60;;;15.80;80.90;;;;;;5085061;28;20052;-60
2022/04/28 11:11:16;;;;;;;9.27;2.60;;;15.80;81.70;;;;;;5079225;28;20052;-60
2022/04/28 11:13:46;;;;;;;7.63;2.92;;;15.40;76.00;;;;;;5087847;28;20290;-63
2022/04/28 11:16:13;;;;;;;7.47;2.80;;;15.20;79.50;;;;;;5087005;28;20078;-63
2022/04/28 11:18:39;;;;;;;7.28;2.75;;;15.00;81.90;;;;;;5090868;28;20309;-61
2022/04/28 11:21:05;;;;;;;6.85;2.70;;;15.00;82.50;;;;;;5087586;28;20512;-62
2022/04/28 11:23:36;;;;;;;5.45;2.42;;;15.00;82.00;;;;;;5087604;28;20142;-63
2022/04/28 11:26:03;;;;;;;7.53;2.53;;;15.00;80.90;;;;;;5088220;28;20067;-62
2022/04/28 11:28:30;;;;;;;11.77;3.38;;;15.10;78.00;;;;;;5088196;28;20467;-62
2022/04/28 11:30:58;;;;;;;7.07;2.28;;;15.10;81.10;;;;;;5086195;28;20055;-62
2022/04/28 11:33:24;;;;;;;8.95;2.92;;;15.10;81.80;;;;;;5089829;28;20150;-62
2022/04/28 11:35:49;;;;;;;7.07;2.30;;;15.00;82.30;;;;;;5084114;28;20123;-63
2022/04/28 11:38:24;;;;;;;6.22;2.17;;;15.10;81.70;;;;;;5090417;28;20048;-62
2022/04/28 11:41:03;;;;;;;8.35;2.45;;;15.00;82.10;;;;;;5085545;28;20163;-62
2022/04/28 11:43:34;;;;;;;7.93;2.45;;;14.90;82.10;;;;;;5089362;28;20044;-62
2022/04/28 11:46:00;;;;;;;6.90;2.30;;;14.90;84.90;;;;;;5080632;28;20040;-63
2022/04/28 11:48:30;;;;;;;8.30;2.80;;;14.80;83.30;;;;;;5086200;28;20121;-63
2022/04/28 11:51:04;;;;;;;7.53;2.30;;;14.90;83.30;;;;;;5086910;28;20067;-59
2022/04/28 11:53:44;;;;;;;9.20;2.60;;;15.00;81.40;;;;;;5090808;28;20085;-64
2022/04/28 11:56:20;;;;;;;8.38;2.50;;;15.10;82.60;;;;;;5084840;28;20495;-62
2022/04/28 11:58:51;;;;;;;11.20;2.90;;;15.30;82.30;;;;;;5089476;28;20146;-63
2022/04/28 12:01:19;;;;;;;8.60;2.53;;;15.30;77.60;;;;;;5086752;28;20032;-62
2022/04/28 12:03:51;;;;;;;7.15;2.33;;;15.40;79.90;;;;;;5089544;28;20510;-63
2022/04/28 12:06:18;;;;;;;9.05;2.70;;;15.60;79.70;;;;;;5085558;28;20040;-63
2022/04/28 12:08:58;;;;;;;8.88;2.60;;;15.60;80.20;;;;;;5088304;28;20040;-63
2022/04/28 12:14:23;;;;;;;7.95;2.80;;;15.90;80.90;;;;;;5086056;28;20055;-62
2022/04/28 12:19:54;;;;;;;8.55;2.75;;;15.90;76.50;;;;;;5087716;28;20052;-63
2022/04/28 12:22:36;;;;;;;9.48;2.90;;;15.90;75.40;;;;;;5085462;28;20040;-62
2022/04/28 12:25:15;;;;;;;9.68;3.25;;;15.60;75.90;;;;;;5081027;28;20468;-65
2022/04/28 12:27:51;;;;;;;4.93;2.25;;;15.70;77.10;;;;;;5083183;28;20464;-64
2022/04/28 12:30:18;;;;;;;8.30;2.65;;;15.90;76.80;;;;;;5089905;28;20047;-63
2022/04/28 12:32:46;;;;;;;7.72;2.40;;;16.10;76.80;;;;;;5085697;28;20032;-62
2022/04/28 12:35:31;;;;;;;10.70;3.33;;;16.20;76.80;;;;;;5082166;28;20036;-62
2022/04/28 12:38:06;;;;;;;6.47;2.67;;;16.10;73.20;;;;;;5083756;28;20032;-63
2022/04/28 12:40:42;;;;;;;8.02;2.53;;;16.30;75.90;;;;;;5081721;28;20043;-62
2022/04/28 12:43:09;;;;;;;8.02;2.50;;;16.20;75.60;;;;;;5082124;28;20505;-63
2022/04/28 12:45:43;;;;;;;7.97;2.70;;;16.30;75.50;;;;;;5081305;28;20044;-62
2022/04/28 12:48:35;;;;;;;8.47;2.90;;;16.10;76.00;;;;;;5085946;28;20067;-62
2022/04/28 12:51:08;;;;;;;6.65;2.75;;;16.10;76.70;;;;;;5084062;28;20075;-65
2022/04/28 12:53:34;;;;;;;10.38;3.03;;;16.30;76.20;;;;;;5084565;28;20085;-63
2022/04/28 12:56:10;;;;;;;8.10;3.10;;;16.30;76.10;;;;;;5086709;28;20044;-62
2022/04/28 12:58:41;;;;;;;9.23;3.15;;;16.30;71.10;;;;;;5088771;28;20051;-63
2022/04/28 13:01:14;;;;;;;9.45;3.17;;;16.20;75.40;;;;;;5085375;28;20044;-61
2022/04/28 13:03:41;;;;;;;7.13;2.88;;;16.20;75.10;;;;;;5085280;28;20036;-61
2022/04/28 13:06:08;;;;;;;8.93;3.42;;;16.10;74.10;;;;;;5085410;28;20063;-61
2022/04/28 13:08:34;;;;;;;8.05;3.58;;;16.20;74.40;;;;;;5088802;28;20040;-61
2022/04/28 13:11:01;;;;;;;8.55;3.50;;;16.40;76.80;;;;;;5086927;28;20087;-61
2022/04/28 13:13:27;;;;;;;9.82;3.63;;;16.30;76.40;;;;;;5087247;28;20491;-61
2022/04/28 13:15:53;;;;;;;10.18;3.60;;;16.20;77.20;;;;;;5088144;28;20093;-61
2022/04/28 13:18:18;;;;;;;10.10;3.78;;;16.10;76.20;;;;;;5088997;28;20081;-61
2022/04/28 13:20:44;;;;;;;7.63;3.08;;;16.10;75.90;;;;;;5085687;28;20032;-61
2022/04/28 13:23:11;;;;;;;8.25;3.47;;;16.20;74.80;;;;;;5086103;28;20055;-61
2022/04/28 13:25:36;;;;;;;9.40;3.40;;;16.20;75.20;;;;;;5085277;28;20099;-61